Date,TemperatureHighF,TemperatureAvgF,TemperatureLowF,DewpointHighF,DewpointAvgF,DewpointLowF,HumidityHigh,HumidityAvg,HumidityLow,PressureMaxIn,PressureMinIn,WindSpeedMaxMPH,WindSpeedAvgMPH,GustSpeedMaxMPH,PrecipitationSumIn
2012-1-1,53.0,44.6,35.0,46.0,40.8,33.0,100,88,62,30.06,29.55,26,6,30,0.05
2012-1-2,46.0,34.4,21.0,46.0,24.5,9.0,99,71,50,29.89,29.56,25,4,26,0.05
2012-1-3,27.0,15.6,7.0,23.0,3.4,-7.0,90,62,46,30.21,29.74,24,6,27,0.00
2012-1-4,25.0,16.9,6.0,15.0,6.3,-4.0,77,66,61,30.22,29.82,12,3,14,0.00
2012-1-5,35.0,29.6,24.0,27.0,19.0,12.0,80,68,59,29.93,29.76,19,4,22,0.00
2012-1-6,49.0,38.8,28.0,35.0,27.4,18.0,94,68,49,29.89,29.64,16,3,18,0.00
2012-1-7,49.0,41.1,31.0,39.0,32.8,26.0,94,74,62,30.12,29.62,18,2,20,0.00
2012-1-8,42.0,33.9,23.0,34.0,22.1,17.0,90,65,51,30.33,29.95,21,5,21,0.00
2012-1-9,40.0,33.8,23.0,23.0,20.0,17.0,91,61,45,30.33,29.76,16,4,18,0.00
2012-1-10,43.0,38.3,33.0,33.0,26.9,21.0,72,66,56,30.08,29.76,19,4,19,0.00
2012-1-11,42.0,35.6,28.0,34.0,27.1,21.0,100,74,59,30.10,29.65,16,3,16,0.20
2012-1-12,39.0,36.1,33.0,39.0,35.8,32.0,100,99,77,29.89,29.16,12,2,14,0.65
2012-1-13,45.0,33.3,25.0,45.0,26.9,18.0,100,80,63,29.81,29.10,26,7,29,0.08
2012-1-14,31.0,18.4,1.0,22.0,8.7,-7.0,85,69,59,30.36,29.63,21,6,24,0.00
2012-1-15,15.0,9.1,1.0,3.0,-0.9,-7.0,88,68,45,30.63,30.13,16,4,17,0.00
2012-1-16,34.0,24.7,5.0,33.0,15.4,1.0,100,73,39,30.63,29.89,26,7,28,0.00
2012-1-17,47.0,39.4,30.0,46.0,36.0,21.0,100,89,51,30.04,29.36,34,7,37,0.23
2012-1-18,47.0,24.8,10.0,46.0,13.3,5.0,98,64,52,30.23,29.39,29,8,32,0.02
2012-1-19,30.0,23.8,10.0,28.0,14.7,5.0,100,73,45,30.26,29.87,25,6,27,0.00
2012-1-20,28.0,22.2,14.0,28.0,8.2,2.0,100,58,43,30.32,29.87,22,5,23,0.00
2012-1-21,19.0,16.0,11.0,15.0,11.3,2.0,97,86,52,30.54,30.13,11,3,13,0.00
2012-1-22,33.0,20.4,4.0,23.0,14.3,2.0,98,82,63,30.57,30.24,14,2,14,0.00
2012-1-23,49.0,39.7,29.0,49.0,38.8,23.0,100,97,82,30.38,29.75,19,5,20,0.19
2012-1-24,49.0,41.5,35.0,49.0,36.7,26.0,100,84,72,30.27,29.75,23,5,24,0.00
2012-1-25,37.0,34.4,29.0,30.0,28.1,26.0,100,81,72,30.28,30.10,22,5,24,0.00
2012-1-26,36.0,33.3,29.0,35.0,32.1,29.0,100,97,86,30.22,29.46,10,2,10,0.93
2012-1-27,47.0,39.6,34.0,47.0,36.9,27.0,100,91,73,29.97,29.22,26,5,31,1.16
2012-1-28,45.0,40.4,29.0,35.0,27.9,16.0,85,64,46,30.07,29.77,20,6,23,0.00
2012-1-29,44.0,36.7,29.0,29.0,20.4,16.0,97,55,39,30.12,29.88,24,5,30,0.00
2012-1-30,37.0,30.7,26.0,29.0,21.9,17.0,97,73,55,30.27,29.88,18,3,19,0.00
2012-1-31,54.0,45.7,28.0,35.0,29.4,21.0,97,56,42,30.23,29.78,17,4,17,0.00
2012-2-1,60.0,47.6,39.0,48.0,38.1,30.0,82,70,53,30.04,29.73,24,5,29,0.04
2012-2-2,42.0,34.7,26.0,35.0,27.0,17.0,81,76,73,30.45,30.01,18,6,18,0.00
2012-2-3,40.0,31.9,22.0,28.0,21.8,17.0,86,70,52,30.48,30.24,18,3,18,0.00
2012-2-4,39.0,34.3,25.0,32.0,24.2,13.0,85,70,58,30.29,30.15,16,4,19,0.00
2012-2-5,36.0,26.8,19.0,19.0,16.4,13.0,83,68,51,30.22,30.03,13,2,15,0.00
2012-2-6,50.0,34.4,24.0,29.0,24.6,18.0,87,72,44,30.12,29.86,13,2,14,0.00
2012-2-7,44.0,36.5,20.0,33.0,25.7,14.0,86,68,55,30.32,29.92,16,4,20,0.00
2012-2-8,34.0,28.6,18.0,24.0,18.3,14.0,91,69,52,30.34,30.07,11,2,12,0.00
2012-2-9,44.0,31.9,21.0,28.0,22.0,18.0,98,72,37,30.12,30.01,16,2,17,0.00
2012-2-10,44.0,35.7,21.0,30.0,24.0,19.0,98,67,47,30.10,29.78,13,2,15,0.00
2012-2-11,37.0,27.0,11.0,32.0,19.0,-2.0,98,75,57,29.88,29.61,24,6,26,0.01
2012-2-12,25.0,17.6,11.0,18.0,6.5,-2.0,87,65,52,29.92,29.74,27,6,32,0.00
2012-2-13,41.0,31.7,18.0,25.0,20.2,10.0,89,67,47,30.06,29.84,21,4,24,0.00
2012-2-14,41.0,35.6,23.0,33.0,25.4,19.0,93,71,50,30.12,29.98,16,2,17,0.00
2012-2-15,44.0,38.3,29.0,39.0,33.2,25.0,98,83,70,30.29,30.04,14,2,14,0.00
2012-2-16,40.0,36.2,27.0,40.0,34.8,25.0,100,96,79,30.28,29.92,16,4,19,0.09
2012-2-17,46.0,40.0,35.0,42.0,31.6,23.0,100,77,43,30.02,29.92,19,5,21,0.06
2012-2-18,43.0,36.3,28.0,35.0,29.2,21.0,100,80,45,30.11,29.84,14,2,18,0.01
2012-2-19,41.0,33.7,26.0,35.0,23.2,18.0,100,69,50,30.15,30.00,15,4,16,0.00
2012-2-20,40.0,31.5,20.0,21.0,18.5,15.0,94,63,40,30.38,30.05,20,4,21,0.00
2012-2-21,42.0,36.5,20.0,36.0,26.2,17.0,95,70,44,30.38,29.66,24,6,27,0.00
2012-2-22,55.0,48.7,41.0,40.0,32.4,26.0,81,56,35,29.77,29.34,22,5,25,0.00
2012-2-23,49.0,42.0,34.0,41.0,31.4,27.0,89,69,53,29.79,29.34,25,4,26,0.01
2012-2-24,42.0,36.6,33.0,40.0,33.2,25.0,100,89,64,29.77,29.26,26,4,28,0.40
2012-2-25,42.0,33.7,24.0,40.0,22.5,11.0,100,67,53,30.37,29.27,37,10,37,0.01
2012-2-26,36.0,28.3,22.0,19.0,12.1,3.0,87,55,28,30.48,30.02,23,5,26,0.00
2012-2-27,51.0,38.9,21.0,32.0,25.7,15.0,88,63,47,30.46,29.99,30,6,30,0.00
2012-2-28,40.0,35.6,31.0,28.0,22.3,19.0,75,61,49,30.42,30.19,23,4,24,0.00
2012-2-29,34.0,32.5,31.0,33.0,30.3,22.0,100,93,68,30.41,29.70,8,1,10,0.00
2012-3-1,35.0,33.3,30.0,35.0,32.8,26.0,100,99,87,30.08,29.68,10,1,10,0.56
2012-3-2,38.0,35.4,30.0,36.0,31.6,26.0,100,88,80,30.10,29.47,19,7,21,0.79
2012-3-3,56.0,41.8,29.0,49.0,33.0,20.0,100,76,26,29.78,29.35,23,4,27,0.20
2012-3-4,41.0,33.7,23.0,28.0,21.5,12.0,83,65,46,29.95,29.56,19,4,20,0.00
2012-3-5,30.0,24.1,16.0,19.0,11.4,8.0,84,61,46,30.62,29.74,21,6,25,0.00
2012-3-6,72.0,33.3,16.0,35.0,14.9,9.0,84,50,26,30.64,30.43,16,4,17,0.00
2012-3-7,61.0,48.8,37.0,36.0,29.7,18.0,64,50,36,30.50,30.20,23,8,24,0.00
2012-3-8,69.0,58.8,40.0,55.0,46.7,36.0,94,65,48,30.21,29.66,32,9,34,0.28
2012-3-9,43.0,36.9,31.0,36.0,25.9,16.0,92,68,44,30.26,29.92,24,6,27,0.00
2012-3-10,39.0,31.7,26.0,23.0,18.7,14.0,81,62,48,30.54,30.26,25,4,25,0.00
2012-3-11,62.0,45.2,29.0,33.0,24.4,17.0,81,48,31,30.47,30.25,17,4,19,0.00
2012-3-12,71.0,55.3,37.0,41.0,34.5,29.0,82,50,27,30.31,30.06,11,2,11,0.00
2012-3-13,70.0,61.4,54.0,60.0,49.7,41.0,83,66,50,30.07,29.85,17,4,19,0.02
2012-3-14,60.0,53.6,43.0,49.0,40.1,34.0,86,62,42,30.23,29.97,21,4,23,0.00
2012-3-15,60.0,46.5,36.0,50.0,41.3,34.0,100,84,54,30.34,30.16,16,2,19,0.28
2012-3-16,52.0,47.5,44.0,50.0,45.5,41.0,100,93,82,30.24,30.09,20,5,21,0.17
2012-3-17,65.0,53.3,47.0,50.0,45.9,43.0,100,78,48,30.37,30.19,11,3,13,0.00
2012-3-18,72.0,56.6,47.0,54.0,49.6,44.0,98,79,53,30.33,30.11,14,4,16,0.00
2012-3-19,79.0,64.8,51.0,58.0,54.2,50.0,98,71,45,30.20,30.10,9,2,10,0.00
2012-3-20,80.0,67.0,55.0,58.0,54.3,51.0,94,67,39,30.30,30.19,14,3,17,0.00
2012-3-21,78.0,66.1,57.0,62.0,58.1,54.0,100,77,51,30.37,30.20,16,4,18,0.00
2012-3-22,83.0,68.0,54.0,62.0,57.5,54.0,100,73,39,30.24,30.01,11,2,13,0.00
2012-3-23,73.0,66.0,61.0,59.0,45.8,29.0,82,52,30,30.18,30.03,20,6,22,0.00
2012-3-24,62.0,54.2,48.0,38.0,28.4,23.0,67,39,28,30.13,29.99,14,4,16,0.01
2012-3-25,56.0,48.4,43.0,47.0,43.0,33.0,100,83,65,30.01,29.73,10,2,10,0.07
2012-3-26,54.0,43.3,32.0,50.0,24.5,4.0,87,52,27,30.16,29.66,29,8,32,0.01
2012-3-27,48.0,35.7,26.0,18.0,7.2,3.0,45,32,20,30.33,30.13,20,5,26,0.00
2012-3-28,59.0,48.6,40.0,50.0,29.9,10.0,85,52,25,30.15,29.50,20,5,23,0.06
2012-3-29,55.0,44.6,41.0,45.0,38.5,29.0,92,80,65,29.99,29.58,21,6,25,0.01
2012-3-30,51.0,42.6,34.0,29.0,18.2,11.0,65,41,23,30.12,29.97,18,4,19,0.00
2012-3-31,48.0,42.7,36.0,37.0,32.7,17.0,91,70,38,30.01,29.88,13,3,17,0.01
2012-4-1,49.0,43.8,41.0,42.0,39.0,36.0,97,84,65,29.90,29.65,11,2,13,0.12
2012-4-2,55.0,45.8,39.0,40.0,28.0,11.0,97,59,20,29.87,29.64,26,6,26,0.01
2012-4-3,59.0,46.4,34.0,23.0,19.2,14.0,61,38,21,29.95,29.75,18,5,22,0.00
2012-4-4,58.0,49.4,41.0,40.0,25.7,14.0,76,44,27,29.77,29.55,26,5,30,0.00
2012-4-5,50.0,41.7,36.0,34.0,27.2,23.0,77,60,43,29.95,29.73,18,5,21,0.00
2012-4-6,55.0,43.8,32.0,32.0,23.4,18.0,86,50,26,30.04,29.90,23,5,24,0.00
2012-4-7,57.0,46.3,33.0,28.0,23.7,17.0,73,45,29,30.08,29.95,27,5,27,0.00
2012-4-8,60.0,48.5,38.0,32.0,27.9,24.0,76,49,31,30.03,29.63,23,4,28,0.00
2012-4-9,52.0,48.0,43.0,39.0,33.3,28.0,72,57,50,29.65,29.56,31,6,34,0.00
2012-4-10,57.0,50.4,44.0,34.0,28.8,25.0,66,45,34,29.80,29.59,19,5,21,0.00
2012-4-11,53.0,45.3,36.0,40.0,35.6,30.0,92,70,46,29.93,29.78,14,3,14,0.00
2012-4-12,57.0,48.9,40.0,40.0,37.0,30.0,88,65,39,30.13,29.91,19,4,23,0.00
2012-4-13,64.0,52.0,36.0,38.0,31.9,26.0,87,51,30,30.22,30.06,21,4,21,0.00
2012-4-14,72.0,56.3,38.0,41.0,33.9,26.0,83,48,24,30.20,29.94,13,2,16,0.00
2012-4-15,72.0,65.4,57.0,63.0,54.1,38.0,87,68,38,30.00,29.90,11,2,12,0.00
2012-4-16,91.0,76.4,59.0,63.0,58.2,51.0,97,60,26,29.98,29.76,22,6,29,0.00
2012-4-17,78.0,62.7,49.0,60.0,42.2,31.0,60,48,29,30.27,29.82,24,7,24,0.00
2012-4-18,57.0,47.8,40.0,35.0,32.3,28.0,78,57,38,30.33,30.12,14,4,14,0.00
2012-4-19,75.0,56.4,35.0,46.0,38.7,33.0,96,58,29,30.12,29.90,15,3,15,0.00
2012-4-20,79.0,66.5,54.0,55.0,48.8,42.0,80,56,28,29.97,29.77,23,7,28,0.00
2012-4-21,77.0,60.2,44.0,60.0,53.9,44.0,100,82,53,29.85,29.61,28,7,32,0.82
2012-4-22,45.0,41.7,40.0,45.0,40.3,38.0,100,95,81,29.90,29.60,21,8,24,1.30
2012-4-23,61.0,47.2,39.0,55.0,44.9,39.0,100,92,78,29.65,29.16,24,7,26,1.34
2012-4-24,55.0,47.0,40.0,43.0,37.7,31.0,90,72,46,29.64,29.27,25,8,28,0.03
2012-4-25,55.0,47.4,38.0,39.0,34.8,29.0,91,64,40,29.91,29.62,23,5,26,0.00
2012-4-26,59.0,49.4,34.0,54.0,39.3,32.0,97,71,40,29.93,29.54,16,4,18,0.02
2012-4-27,54.0,42.8,40.0,49.0,32.4,24.0,92,69,54,30.11,29.57,33,8,33,0.00
2012-4-28,54.0,44.1,33.0,30.0,21.3,16.0,72,45,25,30.24,30.10,19,4,26,0.00
2012-4-29,57.0,47.1,33.0,25.0,17.8,11.0,62,34,20,30.28,30.07,26,5,27,0.00
2012-4-30,62.0,50.4,32.0,38.0,26.2,16.0,82,44,27,30.37,30.11,19,3,23,0.00
2012-5-1,59.0,53.1,47.0,56.0,50.6,34.0,100,92,52,30.13,29.99,19,3,23,0.65
2012-5-2,59.0,55.3,52.0,55.0,51.1,48.0,100,86,74,30.16,30.07,16,5,16,0.00
2012-5-3,64.0,56.8,51.0,59.0,54.3,49.0,100,92,81,30.14,30.00,18,5,19,0.97
2012-5-4,79.0,64.6,56.0,66.0,59.9,55.0,100,86,57,30.07,29.83,20,4,20,0.31
2012-5-5,66.0,60.0,53.0,62.0,48.6,33.0,98,69,39,30.10,29.87,20,6,22,0.00
2012-5-6,72.0,58.2,44.0,52.0,42.3,33.0,91,59,27,30.12,30.02,11,3,13,0.00
2012-5-7,75.0,60.4,45.0,56.0,45.2,32.0,95,59,37,30.14,29.98,21,4,25,0.05
2012-5-8,61.0,56.0,51.0,60.0,54.8,48.0,100,96,83,30.04,29.78,18,6,21,1.69
2012-5-9,71.0,63.9,61.0,66.0,61.0,59.0,100,91,72,29.79,29.56,11,3,14,0.01
2012-5-10,62.0,54.7,49.0,59.0,47.5,41.0,98,78,60,29.77,29.48,28,6,31,0.06
2012-5-11,67.0,56.6,46.0,43.0,38.3,31.0,81,54,30,30.07,29.75,24,5,26,0.00
2012-5-12,82.0,62.9,41.0,54.0,44.3,36.0,98,57,27,30.21,30.07,20,3,22,0.00
2012-5-13,81.0,69.6,56.0,60.0,55.1,52.0,92,63,42,30.17,30.04,11,2,13,0.00
2012-5-14,75.0,64.2,58.0,65.0,60.5,56.0,100,89,63,30.15,30.06,22,3,24,0.64
2012-5-15,67.0,63.8,61.0,67.0,63.5,61.0,100,99,95,30.11,29.93,15,3,16,1.62
2012-5-16,81.0,67.9,58.0,68.0,63.0,46.0,100,86,55,29.99,29.70,23,4,24,0.10
2012-5-17,69.0,58.6,49.0,46.0,42.8,39.0,85,58,35,30.18,29.96,19,4,19,0.00
2012-5-18,76.0,59.9,44.0,49.0,43.4,35.0,95,60,24,30.27,30.12,13,2,13,0.00
2012-5-19,86.0,67.0,49.0,58.0,51.3,46.0,99,64,28,30.22,30.08,10,2,11,0.00
2012-5-20,88.0,72.4,56.0,62.0,57.0,42.0,99,63,37,30.25,30.14,17,2,18,0.00
2012-5-21,76.0,66.4,56.0,68.0,56.9,41.0,100,74,38,30.25,30.00,18,2,18,0.12
2012-5-22,74.0,68.0,65.0,70.0,67.1,65.0,100,97,83,30.02,29.80,7,1,8,0.28
2012-5-23,81.0,71.4,65.0,71.0,65.9,62.0,100,85,54,30.02,29.84,13,2,13,0.02
2012-5-24,79.0,72.2,68.0,72.0,67.7,65.0,99,87,69,30.18,30.01,19,5,19,0.16
2012-5-25,79.0,71.4,65.0,71.0,67.9,64.0,98,89,74,30.20,30.04,26,6,26,0.00
2012-5-26,86.0,76.4,68.0,74.0,62.5,50.0,100,68,32,30.13,30.05,18,3,20,0.00
2012-5-27,85.0,73.4,59.0,67.0,59.1,50.0,94,64,37,30.20,29.97,11,2,11,0.00
2012-5-28,88.0,76.8,64.0,76.0,62.7,49.0,82,63,51,30.01,29.81,14,3,14,0.00
2012-5-29,93.0,78.8,69.0,79.0,72.7,66.0,100,83,51,29.82,29.57,40,5,44,1.62
2012-5-30,80.0,71.6,67.0,71.0,67.9,59.0,100,89,61,29.75,29.66,14,3,17,0.20
2012-5-31,75.0,67.5,56.0,59.0,53.6,48.0,94,64,41,29.96,29.74,19,4,22,0.00
2012-6-1,74.0,66.2,53.0,59.0,54.2,49.0,88,67,51,30.04,29.83,17,4,19,0.00
2012-6-2,68.0,60.9,58.0,63.0,58.6,54.0,100,93,68,29.84,29.69,19,3,21,0.44
2012-6-3,73.0,61.2,54.0,62.0,57.7,54.0,100,90,53,29.74,29.60,16,2,23,0.39
2012-6-4,61.0,56.9,54.0,57.0,53.4,48.0,100,89,69,29.83,29.62,14,3,14,0.21
2012-6-5,66.0,58.8,52.0,56.0,53.1,51.0,99,83,60,29.93,29.82,13,3,14,0.01
2012-6-6,72.0,60.4,52.0,61.0,54.1,50.0,100,82,51,30.00,29.91,15,2,19,0.00
2012-6-7,75.0,63.2,51.0,60.0,55.1,49.0,100,78,43,29.99,29.89,18,2,18,0.00
2012-6-8,83.0,68.5,55.0,63.0,57.5,51.0,100,72,34,29.94,29.74,17,3,19,0.00
2012-6-9,75.0,66.3,58.0,65.0,62.0,57.0,100,87,69,29.97,29.78,22,2,26,0.00
2012-6-10,87.0,74.1,61.0,69.0,65.0,61.0,100,76,47,30.14,29.95,8,2,11,0.00
2012-6-11,81.0,73.9,68.0,67.0,62.7,57.0,83,69,57,30.21,30.12,23,7,27,0.00
2012-6-12,71.0,67.7,65.0,69.0,63.5,56.0,100,87,67,30.14,29.87,19,6,23,0.92
2012-6-13,80.0,69.9,61.0,67.0,60.1,55.0,100,74,43,30.11,29.85,13,5,16,0.17
2012-6-14,80.0,69.5,58.0,58.0,56.0,52.0,91,65,43,30.26,30.09,13,3,14,0.00
2012-6-15,83.0,70.0,55.0,62.0,56.2,52.0,94,65,41,30.34,30.22,11,2,13,0.00
2012-6-16,83.0,72.4,60.0,61.0,57.8,55.0,89,62,44,30.34,30.17,14,4,14,0.00
2012-6-17,79.0,70.1,64.0,64.0,61.2,57.0,87,74,59,30.21,30.01,20,6,21,0.00
2012-6-18,73.0,65.9,59.0,61.0,57.8,54.0,90,76,64,30.13,30.02,19,6,21,0.00
2012-6-19,81.0,71.5,62.0,71.0,65.0,58.0,90,80,70,30.12,29.99,16,5,19,0.00
2012-6-20,98.0,84.2,72.0,77.0,72.1,69.0,96,71,42,30.04,29.89,18,4,21,0.00
2012-6-21,97.0,85.9,74.0,75.0,70.8,66.0,96,64,39,29.93,29.72,17,2,20,0.00
2012-6-22,89.0,80.6,73.0,75.0,68.8,59.0,98,70,45,29.80,29.73,15,3,18,0.00
2012-6-23,83.0,73.1,65.0,65.0,61.6,57.0,92,69,46,29.98,29.78,23,3,27,0.00
2012-6-24,85.0,73.5,59.0,66.0,59.0,48.0,100,66,29,30.00,29.84,15,3,15,0.00
2012-6-25,75.0,68.7,59.0,65.0,61.2,52.0,93,78,60,29.86,29.66,21,3,25,0.02
2012-6-26,71.0,63.6,57.0,60.0,54.9,51.0,96,74,57,29.73,29.65,22,5,25,0.04
2012-6-27,79.0,70.4,59.0,61.0,55.1,50.0,99,62,38,29.75,29.62,24,6,25,0.01
2012-6-28,89.0,75.7,60.0,64.0,58.7,55.0,92,59,34,29.79,29.64,16,2,17,0.00
2012-6-29,94.0,80.7,71.0,74.0,65.0,53.0,93,63,30,29.67,29.57,19,3,23,0.00
2012-6-30,92.0,80.1,65.0,65.0,61.1,56.0,86,56,32,29.73,29.64,17,3,20,0.00
2012-7-1,91.0,80.7,68.0,68.0,62.0,53.0,91,57,33,29.86,29.71,19,3,21,0.00
2012-7-2,87.0,76.6,66.0,69.0,62.5,55.0,100,66,37,29.92,29.85,20,3,21,0.00
2012-7-3,90.0,78.5,66.0,65.0,60.1,53.0,92,57,29,29.95,29.76,13,2,16,0.00
2012-7-4,92.0,81.2,71.0,75.0,70.7,62.0,99,73,48,29.79,29.64,15,3,18,0.04
2012-7-5,85.0,78.1,72.0,74.0,66.7,62.0,92,70,52,29.88,29.68,16,5,18,0.00
2012-7-6,94.0,79.3,64.0,71.0,65.9,62.0,100,68,40,29.94,29.79,10,2,11,0.00
2012-7-7,87.0,79.1,72.0,71.0,68.5,66.0,91,71,54,29.84,29.76,15,2,18,0.00
2012-7-8,89.0,77.5,66.0,71.0,64.3,56.0,100,69,35,29.89,29.80,18,3,20,0.00
2012-7-9,84.0,73.9,62.0,62.0,55.4,49.0,91,56,31,29.99,29.88,14,2,17,0.00
2012-7-10,86.0,72.3,58.0,60.0,55.2,45.0,91,59,29,30.09,29.97,14,2,16,0.00
2012-7-11,91.0,76.7,61.0,65.0,58.6,49.0,93,60,26,30.18,30.07,13,2,16,0.00
2012-7-12,92.0,81.9,72.0,68.0,64.6,62.0,73,58,39,30.19,30.05,10,3,11,0.00
2012-7-13,93.0,82.0,72.0,69.0,66.0,59.0,80,60,36,30.20,30.08,11,3,13,0.00
2012-7-14,91.0,80.4,70.0,72.0,68.8,65.0,100,71,44,30.21,30.05,19,4,19,0.12
2012-7-15,84.0,77.6,73.0,77.0,71.9,68.0,100,83,64,30.11,29.88,13,3,14,0.14
2012-7-16,90.0,80.6,71.0,76.0,71.6,68.0,100,77,50,29.90,29.74,16,4,16,0.00
2012-7-17,99.0,86.1,74.0,74.0,70.5,68.0,89,63,38,29.80,29.60,17,4,21,0.01
2012-7-18,88.0,80.4,74.0,79.0,73.0,59.0,100,80,57,29.92,29.69,17,4,18,0.11
2012-7-19,85.0,74.3,64.0,62.0,58.7,55.0,85,60,42,30.01,29.89,16,4,17,0.00
2012-7-20,76.0,70.3,66.0,65.0,59.7,55.0,90,70,59,30.07,29.99,12,3,13,0.00
2012-7-21,86.0,73.7,61.0,67.0,59.6,51.0,100,67,31,30.10,29.99,14,2,15,0.00
2012-7-22,89.0,77.6,67.0,67.0,63.3,57.0,84,63,41,30.13,30.00,18,5,20,0.00
2012-7-23,87.0,75.4,70.0,74.0,70.0,66.0,100,84,63,30.06,29.66,19,6,23,0.85
2012-7-24,89.0,77.0,70.0,76.0,68.3,53.0,100,77,50,29.83,29.56,20,5,24,0.29
2012-7-25,85.0,73.5,61.0,61.0,57.3,54.0,88,59,39,29.90,29.75,16,3,18,0.00
2012-7-26,86.0,76.0,67.0,79.0,69.4,60.0,100,81,64,29.76,29.53,13,4,16,0.19
2012-7-27,82.0,75.0,70.0,74.0,71.6,69.0,100,90,67,29.89,29.61,13,3,14,0.24
2012-7-28,77.0,73.0,69.0,75.0,71.6,69.0,100,96,84,29.96,29.88,10,2,11,0.08
2012-7-29,82.0,73.5,70.0,72.0,69.5,66.0,100,89,63,30.04,29.93,8,2,8,0.10
2012-7-30,83.0,74.8,66.0,72.0,68.9,66.0,100,83,62,30.10,29.99,17,5,18,0.00
2012-7-31,84.0,75.4,69.0,70.0,67.1,64.0,93,77,56,30.05,29.88,19,5,23,0.00
2012-8-1,86.0,75.7,70.0,74.0,69.8,65.0,95,83,59,29.89,29.77,13,4,15,0.00
2012-8-2,91.0,79.5,70.0,74.0,69.2,64.0,100,74,44,29.87,29.81,13,2,13,0.00
2012-8-3,93.0,82.6,73.0,75.0,70.6,66.0,90,70,46,30.06,29.86,14,3,15,0.00
2012-8-4,95.0,83.8,73.0,78.0,73.8,70.0,100,75,46,30.17,30.04,20,4,23,0.00
2012-8-5,89.0,80.8,74.0,80.0,76.1,72.0,100,86,67,30.15,29.83,24,6,28,0.40
2012-8-6,81.0,74.0,67.0,74.0,63.9,57.0,100,73,48,30.04,29.93,16,4,19,0.12
2012-8-7,85.0,72.4,59.0,65.0,61.7,59.0,100,72,44,30.03,29.91,13,2,13,0.00
2012-8-8,91.0,78.6,65.0,71.0,65.6,60.0,99,68,38,29.99,29.88,13,3,14,0.00
2012-8-9,92.0,80.4,73.0,75.0,71.5,67.0,97,76,48,29.93,29.79,22,4,22,0.00
2012-8-10,77.0,73.2,70.0,76.0,72.2,69.0,100,97,83,29.87,29.74,15,1,16,1.93
2012-8-11,82.0,75.0,69.0,77.0,73.3,69.0,100,95,77,29.86,29.78,16,2,18,0.25
2012-8-12,84.0,76.4,68.0,74.0,68.3,63.0,100,78,54,29.92,29.83,11,2,12,0.00
2012-8-13,81.0,73.9,68.0,70.0,66.4,64.0,99,79,58,29.98,29.91,14,2,14,0.00
2012-8-14,78.0,72.2,64.0,70.0,67.2,64.0,100,85,67,29.96,29.85,11,2,12,0.00
2012-8-15,81.0,74.2,67.0,71.0,68.9,67.0,100,85,65,29.90,29.81,10,2,11,0.15
2012-8-16,86.0,75.3,67.0,70.0,65.0,56.0,100,74,39,29.93,29.81,15,2,17,0.00
2012-8-17,85.0,70.9,65.0,73.0,66.6,64.0,100,88,57,29.86,29.72,23,3,23,0.11
2012-8-18,78.0,69.9,64.0,67.0,59.0,52.0,100,72,43,29.94,29.83,15,3,16,0.02
2012-8-19,77.0,65.9,54.0,60.0,55.6,52.0,99,72,45,30.01,29.88,11,2,11,0.00
2012-8-20,81.0,67.4,56.0,68.0,61.6,56.0,100,84,48,29.93,29.80,15,2,16,0.02
2012-8-21,81.0,70.1,60.0,67.0,58.6,51.0,100,72,38,30.09,29.91,14,2,16,0.01
2012-8-22,84.0,70.5,56.0,63.0,59.4,55.0,100,72,44,30.16,30.06,13,2,14,0.00
2012-8-23,87.0,74.6,65.0,67.0,63.7,59.0,96,72,44,30.16,30.06,12,2,13,0.00
2012-8-24,88.0,73.9,61.0,68.0,63.9,57.0,100,75,38,30.20,30.12,10,2,10,0.00
2012-8-25,87.0,75.2,64.0,70.0,66.0,59.0,100,76,48,30.28,30.17,15,3,17,0.00
2012-8-26,86.0,76.9,69.0,67.0,62.6,58.0,80,62,49,30.32,30.17,16,4,16,0.00
2012-8-27,85.0,75.0,66.0,74.0,69.2,58.0,98,83,65,30.33,29.90,21,5,23,0.00
2012-8-28,83.0,75.5,70.0,74.0,68.3,60.0,100,80,56,29.92,29.76,16,4,19,0.87
2012-8-29,77.0,67.9,59.0,60.0,52.6,46.0,87,61,36,30.03,29.90,13,3,14,0.00
2012-8-30,83.0,67.7,53.0,63.0,57.8,52.0,100,74,46,30.09,29.97,13,2,14,0.00
2012-8-31,91.0,76.3,59.0,68.0,63.0,57.0,94,66,41,30.01,29.79,16,3,20,0.00
2012-9-1,86.0,78.3,68.0,70.0,65.8,60.0,94,67,44,30.06,29.86,14,3,16,0.00
2012-9-2,84.0,72.1,61.0,64.0,58.6,52.0,95,66,36,30.11,30.02,13,2,13,0.00
2012-9-3,81.0,70.3,59.0,64.0,60.7,56.0,98,74,47,30.17,30.09,19,4,19,0.00
2012-9-4,80.0,74.5,69.0,75.0,68.6,59.0,93,82,69,30.11,29.74,16,5,18,0.01
2012-9-5,80.0,74.2,65.0,75.0,69.7,63.0,100,87,69,29.87,29.67,12,3,16,0.38
2012-9-6,83.0,72.1,63.0,72.0,67.9,63.0,100,88,63,29.91,29.79,16,2,18,0.38
2012-9-7,88.0,77.5,69.0,74.0,69.9,65.0,100,80,51,29.93,29.71,22,2,23,0.00
2012-9-8,85.0,72.6,59.0,75.0,69.2,55.0,100,90,63,29.85,29.46,34,6,37,1.49
2012-9-9,75.0,65.3,56.0,62.0,57.1,52.0,100,77,51,29.99,29.75,13,2,14,1.50
2012-9-10,68.0,59.5,49.0,56.0,48.9,44.0,97,70,47,30.28,29.90,21,3,21,0.00
2012-9-11,73.0,58.6,45.0,54.0,48.8,45.0,100,74,39,30.37,30.14,8,1,11,0.00
2012-9-12,81.0,65.2,50.0,60.0,55.5,50.0,100,75,40,30.38,30.26,14,2,14,0.00
2012-9-13,84.0,70.3,56.0,64.0,60.0,56.0,100,73,45,30.37,30.22,13,3,14,0.00
2012-9-14,82.0,71.0,61.0,66.0,61.6,57.0,99,75,46,30.25,30.03,17,4,20,0.00
2012-9-15,70.0,63.0,51.0,60.0,53.9,49.0,100,74,48,30.14,30.07,18,3,20,0.12
2012-9-16,71.0,59.3,49.0,57.0,49.8,43.0,100,75,39,30.13,30.01,15,2,18,0.00
2012-9-17,79.0,63.5,49.0,59.0,54.9,49.0,100,77,48,30.11,29.83,19,3,19,0.33
2012-9-18,74.0,66.5,55.0,72.0,64.7,52.0,100,94,74,29.98,29.48,29,6,36,2.62
2012-9-19,67.0,57.0,45.0,63.0,48.7,45.0,100,77,47,30.26,29.67,16,3,18,0.01
2012-9-20,69.0,58.2,45.0,57.0,52.1,45.0,100,82,58,30.26,30.07,16,3,18,0.01
2012-9-21,72.0,64.3,55.0,61.0,58.2,53.0,97,82,66,30.10,29.89,21,4,23,0.00
2012-9-22,73.0,65.5,59.0,66.0,61.3,51.0,100,87,76,30.02,29.73,24,6,26,0.67
2012-9-23,66.0,57.8,48.0,61.0,48.9,41.0,100,76,41,30.15,29.82,17,2,21,0.67
2012-9-24,64.0,53.0,44.0,52.0,46.1,40.0,100,81,42,30.17,30.05,12,2,14,0.00
2012-9-25,72.0,59.8,46.0,52.0,47.8,44.0,95,68,42,30.13,30.02,22,4,22,0.00
2012-9-26,69.0,64.4,60.0,65.0,60.9,51.0,100,89,68,30.19,29.98,14,4,18,0.20
2012-9-27,67.0,60.4,51.0,64.0,53.3,47.0,100,80,51,30.23,30.02,13,3,13,0.21
2012-9-28,57.0,53.2,50.0,57.0,52.8,49.0,100,99,89,30.23,29.94,8,2,9,0.51
2012-9-29,62.0,57.0,55.0,59.0,56.2,55.0,100,97,85,29.99,29.85,10,3,10,0.51
2012-9-30,62.0,56.4,54.0,59.0,55.6,51.0,100,97,84,29.90,29.69,12,2,13,0.16
2012-10-1,66.0,58.8,53.0,59.0,55.5,53.0,100,90,72,30.00,29.69,13,3,15,0.16
2012-10-2,63.0,59.7,55.0,62.0,58.7,55.0,100,97,89,30.06,29.93,16,2,16,0.01
2012-10-3,70.0,64.6,61.0,69.0,64.4,61.0,100,99,95,30.14,30.01,8,1,8,0.01
2012-10-4,70.0,65.8,59.0,70.0,65.8,57.0,100,100,100,30.15,30.03,8,1,8,0.25
2012-10-5,76.0,65.3,57.0,67.0,62.2,57.0,100,91,66,30.05,29.75,14,3,16,0.03
2012-10-6,70.0,59.2,47.0,66.0,55.4,39.0,100,88,65,30.06,29.70,27,3,27,0.01
2012-10-7,56.0,50.5,46.0,48.0,43.7,39.0,99,78,62,30.20,29.98,9,2,10,0.12
2012-10-8,57.0,49.2,43.0,48.0,44.6,40.0,100,86,55,30.30,30.08,12,1,13,0.00
2012-10-9,62.0,51.3,42.0,52.0,47.9,42.0,100,89,69,30.29,29.99,11,2,13,0.00
2012-10-10,59.0,53.5,44.0,59.0,50.3,37.0,100,89,72,30.09,29.74,23,4,26,0.21
2012-10-11,59.0,49.4,44.0,44.0,39.7,34.0,89,71,43,30.16,29.88,18,3,19,0.04
2012-10-12,53.0,46.2,29.0,45.0,34.5,23.0,100,67,42,30.52,30.01,23,4,26,0.05
2012-10-13,53.0,43.0,29.0,41.0,29.5,24.0,100,65,41,30.53,30.07,20,3,21,0.30
2012-10-14,69.0,56.9,47.0,60.0,50.2,33.0,100,80,53,30.24,29.69,23,7,23,0.42
2012-10-15,68.0,63.2,53.0,65.0,59.3,39.0,100,88,66,29.83,29.58,18,5,23,0.46
2012-10-16,54.0,48.5,36.0,51.0,39.7,36.0,100,73,59,29.99,29.66,21,4,24,0.00
2012-10-17,63.0,47.4,36.0,45.0,40.9,36.0,100,81,42,30.02,29.91,7,1,8,0.00
2012-10-18,69.0,55.8,40.0,55.0,47.0,40.0,100,76,45,30.01,29.88,17,4,23,0.51
2012-10-19,65.0,61.8,56.0,65.0,60.6,53.0,100,96,80,29.99,29.59,16,2,16,2.53
2012-10-20,71.0,61.5,47.0,65.0,55.7,43.0,100,83,54,29.87,29.58,16,2,18,0.13
2012-10-21,64.0,55.3,46.0,49.0,45.3,41.0,95,71,46,30.03,29.77,25,4,25,0.00
2012-10-22,66.0,57.9,49.0,49.0,47.3,44.0,87,69,53,30.12,29.95,24,5,24,0.00
2012-10-23,58.0,51.5,44.0,53.0,48.4,44.0,100,90,71,30.18,30.06,6,1,7,0.00
2012-10-24,57.0,53.3,51.0,53.0,46.9,43.0,100,80,70,30.25,30.13,7,1,7,0.00
2012-10-25,62.0,57.8,53.0,57.0,53.8,48.0,93,87,82,30.27,30.20,19,4,22,0.00
2012-10-26,64.0,60.8,56.0,58.0,56.9,55.0,99,87,80,30.23,30.05,14,4,15,0.00
2012-10-27,65.0,59.9,53.0,61.0,56.5,52.0,100,89,76,30.12,29.94,11,1,12,0.00
2012-10-28,62.0,56.9,52.0,55.0,50.7,44.0,100,82,55,29.99,29.63,17,3,17,0.00
2012-10-29,69.0,58.6,54.0,63.0,54.0,48.0,98,85,72,29.80,29.00,32,10,33,0.22
2012-10-30,65.0,61.6,51.0,61.0,52.4,44.0,96,73,57,29.47,29.10,31,7,32,0.06
2012-10-31,54.0,48.4,44.0,52.0,43.2,39.0,99,83,66,29.53,29.39,23,6,25,0.04
2012-11-1,51.0,47.5,44.0,47.0,43.9,40.0,93,88,78,29.58,29.49,14,4,14,0.02
2012-11-2,49.0,45.8,41.0,44.0,39.0,34.0,86,78,65,29.79,29.55,21,4,21,0.00
2012-11-3,47.0,42.7,39.0,39.0,35.0,31.0,86,75,59,29.98,29.71,20,5,22,0.00
2012-11-4,44.0,40.6,38.0,34.0,31.7,25.0,82,72,64,30.07,29.93,21,5,21,0.00
2012-11-5,42.0,37.1,29.0,28.0,22.9,18.0,71,59,41,30.26,30.01,14,3,16,0.00
2012-11-6,42.0,31.9,24.0,26.0,20.2,-99.9,100,68,44,30.28,30.11,11,1,14,0.00
2012-11-7,37.0,33.0,25.0,29.0,23.5,20.0,90,72,55,30.18,29.86,23,5,23,0.00
2012-11-8,43.0,38.4,31.0,32.0,28.0,23.0,76,69,62,30.07,29.83,20,7,24,0.00
2012-11-9,50.0,42.1,31.0,41.0,30.0,22.0,84,66,40,30.29,29.95,18,5,20,0.00
2012-11-10,54.0,47.8,44.0,44.0,39.5,36.0,87,74,52,30.44,30.17,19,2,21,0.00
2012-11-11,66.0,56.4,44.0,51.0,45.5,37.0,81,68,54,30.44,30.35,19,5,19,0.00
2012-11-12,69.0,61.4,54.0,61.0,52.8,40.0,86,74,57,30.40,30.06,30,8,32,1.03
2012-11-13,65.0,44.0,35.0,61.0,37.7,26.0,100,81,59,30.62,30.06,18,4,21,1.25
2012-11-14,45.0,37.6,30.0,30.0,26.3,23.0,91,68,46,30.63,30.49,16,3,18,0.00
2012-11-15,42.0,33.0,27.0,32.0,26.8,23.0,97,82,59,30.53,30.35,8,1,10,0.00
2012-11-16,41.0,31.4,25.0,34.0,28.8,25.0,100,92,71,30.67,30.35,11,1,11,0.00
2012-11-17,46.0,34.2,27.0,39.0,30.8,25.0,100,90,65,30.77,30.52,8,1,10,0.00
2012-11-18,48.0,33.7,25.0,38.0,29.1,25.0,100,87,49,30.77,30.58,7,1,10,0.00
2012-11-19,49.0,33.8,25.0,37.0,29.0,25.0,100,86,51,30.63,30.24,8,1,8,0.00
2012-11-20,47.0,36.2,27.0,38.0,31.8,26.0,100,86,61,30.29,30.14,10,1,11,0.00
2012-11-21,53.0,38.5,31.0,40.0,31.6,26.0,100,81,43,30.31,30.19,7,0,7,0.00
2012-11-22,55.0,38.6,27.0,39.0,32.6,26.0,100,82,50,30.32,29.98,9,1,10,0.00
2012-11-23,58.0,46.4,34.0,44.0,37.9,23.0,99,75,44,30.10,29.62,22,5,24,0.01
2012-11-24,48.0,37.4,31.0,40.0,25.8,20.0,77,65,51,29.86,29.64,24,6,26,0.00
2012-11-25,37.0,33.9,30.0,29.0,25.3,20.0,81,73,69,29.99,29.78,13,3,15,0.00
2012-11-26,42.0,37.1,31.0,33.0,28.8,26.0,93,75,61,30.28,29.87,18,3,22,0.00
2012-11-27,37.0,33.7,29.0,37.0,31.7,28.0,100,94,78,30.33,30.24,11,1,11,0.01
2012-11-28,39.0,33.8,28.0,36.0,28.1,22.0,100,83,55,30.29,30.15,10,2,13,0.01
2012-11-29,47.0,38.1,27.0,32.0,26.6,18.0,91,68,39,30.48,30.17,20,4,20,0.01
2012-11-30,38.0,26.6,22.0,31.0,17.3,11.0,97,72,57,30.61,30.25,12,5,13,0.00
2012-12-1,42.0,30.2,22.0,40.0,28.2,17.0,100,95,83,30.62,30.30,15,2,17,0.04
2012-12-2,51.0,45.8,37.0,48.0,44.6,37.0,100,96,84,30.44,30.03,22,7,24,0.25
2012-12-3,51.0,44.1,33.0,50.0,41.7,33.0,100,92,79,30.29,30.04,13,2,16,0.00
2012-12-4,58.0,51.0,33.0,57.0,49.6,33.0,100,96,92,30.27,29.83,21,6,22,0.13
2012-12-5,57.0,40.1,29.0,55.0,30.8,16.0,100,72,54,30.44,29.83,23,5,26,0.13
2012-12-6,35.0,28.5,24.0,23.0,19.8,17.0,95,74,58,30.44,30.16,16,3,16,0.00
2012-12-7,38.0,35.2,24.0,38.0,32.1,21.0,100,91,67,30.25,29.93,19,4,21,0.30
2012-12-8,48.0,41.0,37.0,46.0,40.9,34.0,100,99,80,30.27,29.83,15,2,19,0.17
2012-12-9,48.0,42.1,37.0,47.0,36.5,33.0,100,81,65,30.30,29.73,12,4,14,0.09
2012-12-10,53.0,46.0,39.0,53.0,45.6,33.0,100,98,91,30.05,29.48,19,5,21,0.57
2012-12-11,44.0,37.0,27.0,42.0,30.3,22.0,94,79,64,30.37,29.65,21,3,23,0.03
2012-12-12,42.0,31.6,24.0,33.0,28.0,23.0,100,90,66,30.49,30.22,9,1,10,0.00
2012-12-13,43.0,32.8,26.0,34.0,28.4,25.0,100,88,61,30.51,30.23,8,1,8,0.00
2012-12-14,47.0,38.4,28.0,36.0,30.8,26.0,99,77,56,30.32,30.14,12,3,14,0.00
2012-12-15,42.0,32.7,27.0,35.0,24.6,18.0,93,75,63,30.37,30.17,12,4,12,0.00
2012-12-16,37.0,33.7,27.0,35.0,28.9,19.0,100,85,74,30.27,29.92,17,4,19,0.14
2012-12-17,40.0,37.1,34.0,40.0,37.0,33.0,100,100,95,29.98,29.52,11,2,11,0.58
2012-12-18,45.0,41.9,37.0,45.0,41.0,35.0,100,97,84,29.70,29.43,21,2,22,0.64
2012-12-19,44.0,40.0,30.0,38.0,32.4,24.0,89,76,67,30.25,29.57,24,5,24,0.00
2012-12-20,46.0,37.8,28.0,43.0,31.2,24.0,99,80,68,30.27,29.25,33,4,36,0.38
2012-12-21,54.0,42.8,37.0,49.0,37.7,23.0,99,83,72,29.83,28.93,39,8,42,0.96
2012-12-22,39.0,33.1,30.0,34.0,24.4,19.0,86,73,64,29.87,29.18,29,8,32,0.00
2012-12-23,38.0,33.7,29.0,28.0,24.6,21.0,81,72,59,30.10,29.77,17,2,18,0.00
2012-12-24,37.0,33.4,30.0,28.0,23.4,21.0,81,70,57,30.13,29.89,14,3,15,0.00
2012-12-25,32.0,28.5,24.0,27.0,23.8,15.0,99,86,77,30.40,29.96,12,4,13,0.00
2012-12-26,29.0,24.1,19.0,29.0,19.9,15.0,100,87,77,30.40,29.51,19,5,21,0.00
2012-12-27,31.0,28.3,25.0,31.0,27.6,20.0,100,98,86,30.04,29.52,20,7,22,0.00
2012-12-28,33.0,29.4,25.0,26.0,24.3,20.0,93,85,77,30.11,29.84,20,5,23,0.00
2012-12-29,30.0,28.4,27.0,29.0,27.0,15.0,100,97,89,30.07,29.57,19,1,21,0.00
2012-12-30,28.0,23.2,21.0,28.0,16.6,13.0,100,79,64,30.19,29.60,27,6,33,0.00
2012-12-31,37.0,28.4,20.0,28.0,21.8,14.0,88,80,66,30.16,29.77,23,2,23,0.00
2013-1-1,37.0,27.8,13.0,29.0,18.4,7.0,92,71,60,30.03,29.77,21,4,24,0.00